CheckWX is a tool to help pilots better visualize weather data.  It is not intended as a substitute for an official pre-flight weather briefing.

13:55:41 UTC

KSCR METAR
Siler City Municipal Airport
Siler City, North Carolina, USA
Current

16 mins ago

KSCR 261340Z AUTO 21009G18KT 10SM BKN017 OVC023 21/17 A2966 RMK AO2 T02120168
Observed
Apr-26 @ 13:40 UTC
Wind
  • 210° at 9 KTS
  • Gusting to 18 KTS
Visibility
10 SM
Flight Rules
MVFR
Cloud Levels
  • Broken at 1,700' AGL
  • Overcast at 2,300' AGL
Temperature
21°C / 70°F
Dewpoint
17°C / 63°F
Humidity
78%
Altimeter
29.66" Hg
Pressure
1004.42 hPa
Previous

36 mins ago

KSCR 261320Z AUTO 19011G19KT 10SM SCT015 OVC090 21/17 A2967 RMK AO2 T02070169
Observed
Apr-26 @ 13:20 UTC
Wind
  • 190° at 11 KTS
  • Gusting to 19 KTS
Visibility
10 SM
Flight Rules
VFR
Cloud Levels
  • Scattered at 1,500' AGL
  • Overcast at 9,000' AGL
Temperature
21°C / 70°F
Dewpoint
17°C / 63°F
Humidity
78%
Altimeter
29.67" Hg
Pressure
1004.72 hPa
Previous

56 mins ago

KSCR 261300Z AUTO 17010KT 150V210 10SM OVC100 20/17 A2968 RMK AO2 T01970169
Observed
Apr-26 @ 13:00 UTC
Wind
  • 170° at 10 KTS
Visibility
10 SM
Flight Rules
VFR
Cloud Levels
  • Overcast at 10,000' AGL
Temperature
20°C / 68°F
Dewpoint
17°C / 63°F
Humidity
83%
Altimeter
29.68" Hg
Pressure
1005.12 hPa